createdAt,value
2019-04-20T00:00:09.518Z,79.35
2019-04-20T00:01:07.358Z,78.49
2019-04-20T00:02:13.692Z,80.20
2019-04-20T00:03:06.022Z,79.91
2019-04-20T00:04:09.887Z,78.33
2019-04-20T00:05:05.870Z,76.62
2019-04-20T00:06:06.989Z,75.37
2019-04-20T00:07:06.046Z,77.09
2019-04-20T00:08:09.101Z,76.52
2019-04-20T00:09:12.232Z,77.00
2019-04-20T00:10:13.104Z,76.90
2019-04-20T00:11:11.717Z,77.38
2019-04-20T00:12:12.729Z,77.95
2019-04-20T00:13:16.583Z,77.95
2019-04-20T00:14:10.973Z,78.43
2019-04-20T00:15:05.130Z,78.72
2019-04-20T00:16:06.232Z,78.72
2019-04-20T00:17:05.206Z,78.72
2019-04-20T00:18:06.806Z,78.62
2019-04-20T00:19:05.841Z,77.76
2019-04-20T00:20:15.525Z,76.81
2019-04-20T00:21:08.589Z,77.67
2019-04-20T00:22:08.263Z,78.33
2019-04-20T00:23:05.825Z,77.28
2019-04-20T00:24:11.436Z,77.09
2019-04-20T00:25:11.867Z,77.19
2019-04-20T00:26:13.163Z,76.81
2019-04-20T00:27:26.268Z,76.33
2019-04-20T00:28:20.808Z,76.71
2019-04-20T00:29:21.288Z,77.19
2019-04-20T00:30:26.425Z,76.33
2019-04-20T00:31:22.491Z,76.33
2019-04-20T00:32:14.421Z,76.14
2019-04-20T00:33:14.786Z,75.85
2019-04-20T00:34:11.941Z,75.57
2019-04-20T00:35:04.148Z,74.32
2019-04-20T00:36:03.518Z,72.99
2019-04-20T00:37:05.185Z,71.50
2019-04-20T00:38:03.453Z,71.02
2019-04-20T00:39:06.410Z,70.26
2019-04-20T00:40:03.717Z,69.34
2019-04-20T00:41:07.596Z,68.86
2019-04-20T00:42:06.677Z,68.29
2019-04-20T00:43:03.090Z,70.20
2019-04-20T00:44:09.411Z,68.67
2019-04-20T00:45:10.616Z,69.15
2019-04-20T00:46:09.107Z,69.62
2019-04-20T00:47:14.435Z,68.29
2019-04-20T00:48:07.968Z,69.82
2019-04-20T00:49:17.307Z,71.44
2019-04-20T00:50:18.470Z,71.02
2019-04-20T00:51:24.115Z,73.22
2019-04-20T00:52:31.288Z,73.88
2019-04-20T00:53:10.131Z,74.13
2019-04-20T00:54:03.642Z,73.85
2019-04-20T00:55:02.420Z,75.09
2019-04-20T00:56:03.314Z,75.85
2019-04-20T00:57:13.509Z,76.39
2019-04-20T00:58:14.778Z,75.53
2019-04-20T00:59:13.012Z,76.39
2019-04-20T01:00:21.928Z,76.57
2019-04-20T01:01:20.567Z,76.67
2019-04-20T01:02:16.920Z,79.02
2019-04-20T01:03:15.836Z,78.92
2019-04-20T01:04:20.231Z,79.78
2019-04-20T01:05:18.060Z,79.97
2019-04-20T01:06:24.743Z,80.83
2019-04-20T01:07:13.945Z,80.64
2019-04-20T01:08:04.508Z,80.54
2019-04-20T01:09:01.356Z,80.83
2019-04-20T01:10:00.934Z,80.73
2019-04-20T01:11:01.527Z,81.78
2019-04-20T01:12:05.131Z,81.65
2019-04-20T01:13:06.731Z,81.74
2019-04-20T01:14:04.370Z,81.65
2019-04-20T01:15:05.146Z,82.79
2019-04-20T01:16:06.222Z,81.93
2019-04-20T01:17:11.415Z,82.03
2019-04-20T01:18:00.321Z,82.41
2019-04-20T01:19:00.244Z,83.07
2019-04-20T01:20:00.169Z,82.98
2019-04-20T01:21:06.864Z,82.89
2019-04-20T01:22:06.635Z,82.50
2019-04-20T01:23:06.657Z,82.60
2019-04-20T01:24:04.531Z,82.50
2019-04-20T01:25:07.884Z,83.36
2019-04-20T01:26:05.513Z,83.07
2019-04-20T01:27:02.497Z,83.65
2019-04-20T01:28:11.914Z,83.74
2019-04-20T01:29:12.146Z,84.41
2019-04-20T01:30:09.938Z,84.41
2019-04-20T01:31:12.543Z,83.55
2019-04-20T01:32:10.471Z,83.55
2019-04-20T01:33:14.874Z,84.41
2019-04-20T01:34:06.185Z,83.84
2019-04-20T01:35:10.037Z,84.50
2019-04-20T01:36:21.585Z,83.74
2019-04-20T01:37:14.473Z,83.84
2019-04-20T01:38:16.633Z,83.55
2019-04-20T01:39:10.305Z,83.93
2019-04-20T01:40:02.349Z,83.93
2019-04-20T01:40:59.137Z,84.12
2019-04-20T01:41:58.483Z,83.26
2019-04-20T01:42:59.511Z,83.26
2019-04-20T01:43:58.545Z,83.26
2019-04-20T01:44:59.001Z,82.98
2019-04-20T01:46:05.091Z,82.69
2019-04-20T01:47:01.498Z,83.74
2019-04-20T01:48:00.945Z,84.31
2019-04-20T01:48:59.939Z,84.50
2019-04-20T01:50:03.789Z,85.17
2019-04-20T01:51:05.961Z,84.27
2019-04-20T01:52:07.653Z,83.74
2019-04-20T01:53:09.975Z,83.45
2019-04-20T01:54:12.066Z,83.17
2019-04-20T01:55:21.201Z,83.74
2019-04-20T01:56:13.730Z,84.41
2019-04-20T01:57:09.493Z,84.46
2019-04-20T01:58:22.424Z,84.31
2019-04-20T01:59:16.343Z,83.89
2019-04-20T02:00:06.036Z,83.89
2019-04-20T02:00:58.842Z,83.03
2019-04-20T02:02:03.203Z,82.41
2019-04-20T02:03:01.356Z,83.07
2019-04-20T02:03:58.697Z,82.12
2019-04-20T02:05:04.455Z,82.79
2019-04-20T02:06:03.509Z,83.17
2019-04-20T02:06:59.660Z,81.36
2019-04-20T02:07:57.464Z,81.65
2019-04-20T02:09:00.289Z,80.60
2019-04-20T02:10:01.918Z,82.98
2019-04-20T02:11:00.586Z,82.50
2019-04-20T02:12:05.880Z,82.60
2019-04-20T02:13:00.181Z,83.17
2019-04-20T02:14:01.470Z,82.89
2019-04-20T02:15:00.464Z,82.60
2019-04-20T02:15:59.835Z,83.07
2019-04-20T02:17:04.491Z,82.31
2019-04-20T02:18:08.931Z,83.17
2019-04-20T02:19:09.300Z,82.60
2019-04-20T02:20:15.607Z,82.03
2019-04-20T02:21:15.172Z,82.98
2019-04-20T02:22:09.732Z,82.41
2019-04-20T02:23:10.700Z,82.98
2019-04-20T02:24:00.594Z,82.89
2019-04-20T02:24:55.262Z,82.60
2019-04-20T02:25:55.104Z,81.93
2019-04-20T02:26:55.713Z,82.79
2019-04-20T02:28:13.625Z,84.31
2019-04-20T02:29:21.595Z,83.98
2019-04-20T02:30:21.777Z,83.70
2019-04-20T02:31:38.271Z,83.13
2019-04-20T02:32:22.494Z,85.22
2019-04-20T02:33:40.153Z,85.32
2019-04-20T02:34:31.656Z,85.51
2019-04-20T02:35:30.889Z,85.60
2019-04-20T02:36:44.274Z,85.70
2019-04-20T02:38:39.197Z,85.51
2019-04-20T02:40:39.804Z,86.70
2019-04-20T02:41:32.994Z,86.32
2019-04-20T02:42:57.997Z,86.61
2019-04-20T02:45:40.036Z,85.80
2019-04-20T02:46:24.457Z,86.42
2019-04-20T02:47:35.731Z,86.27
2019-04-20T02:48:22.194Z,86.65
2019-04-20T02:51:31.262Z,86.61
2019-04-20T02:52:33.491Z,85.60
2019-04-20T02:53:31.955Z,86.46
2019-04-20T02:55:22.561Z,85.89
2019-04-20T02:56:37.429Z,85.60
2019-04-20T02:58:25.547Z,85.89
2019-04-20T03:00:19.440Z,86.46
2019-04-20T03:02:13.005Z,86.70
2019-04-20T03:03:03.229Z,86.75
2019-04-20T03:03:57.638Z,87.75
2019-04-20T03:05:06.669Z,86.51
2019-04-20T03:06:08.594Z,86.13
2019-04-20T03:07:09.361Z,86.32
2019-04-20T03:08:08.528Z,85.60
2019-04-20T03:09:56.284Z,85.41
2019-04-20T03:11:11.719Z,85.03
2019-04-20T03:12:18.759Z,84.46
2019-04-20T03:13:04.125Z,82.93
2019-04-20T03:13:59.257Z,83.98
2019-04-20T03:14:51.489Z,82.84
2019-04-20T03:16:01.907Z,81.55
2019-04-20T03:17:06.887Z,82.60
2019-04-20T03:18:55.706Z,80.41
2019-04-20T03:19:53.673Z,81.36
2019-04-20T03:21:00.688Z,81.65
2019-04-20T03:22:03.800Z,82.79
2019-04-20T03:24:06.428Z,83.17
2019-04-20T03:25:02.027Z,82.41
2019-04-20T03:25:58.504Z,82.12
2019-04-20T03:26:57.004Z,82.69
2019-04-20T03:27:59.580Z,82.21
2019-04-20T03:28:54.115Z,82.31
2019-04-20T03:29:57.789Z,82.31
2019-04-20T03:33:21.188Z,82.60
2019-04-20T03:35:05.316Z,82.41
2019-04-20T03:36:10.407Z,82.60
2019-04-20T03:37:07.342Z,83.13
2019-04-20T03:37:58.815Z,83.61
2019-04-20T03:38:57.334Z,83.61
2019-04-20T03:39:54.050Z,83.98
2019-04-20T03:40:48.349Z,83.32
2019-04-20T03:41:43.190Z,83.13
2019-04-20T03:42:37.101Z,83.70
2019-04-20T03:43:37.097Z,82.46
2019-04-20T03:44:38.884Z,82.18
2019-04-20T03:45:44.522Z,82.18
2019-04-20T03:46:45.103Z,81.93
2019-04-20T03:47:49.685Z,82.69
2019-04-20T03:48:56.246Z,81.98
2019-04-20T03:49:59.544Z,82.08
2019-04-20T03:50:57.682Z,81.79
2019-04-20T03:51:57.403Z,82.75
2019-04-20T03:52:54.261Z,82.84
2019-04-20T03:53:57.927Z,82.27
2019-04-20T03:54:48.297Z,81.98
2019-04-20T03:55:54.015Z,82.37
2019-04-20T03:56:54.447Z,83.22
2019-04-20T03:58:01.148Z,83.32
2019-04-20T03:58:50.533Z,83.70
2019-04-20T03:59:56.453Z,83.89
2019-04-20T04:00:50.426Z,83.98
2019-04-20T04:02:17.073Z,85.13
2019-04-20T04:03:08.235Z,84.46
2019-04-20T04:03:58.974Z,84.23
2019-04-20T04:04:56.335Z,85.18
2019-04-20T04:05:48.028Z,86.51
2019-04-20T04:06:44.395Z,86.13
2019-04-20T04:07:41.558Z,87.37
2019-04-20T04:08:42.909Z,87.56
2019-04-20T04:09:47.006Z,86.90
2019-04-20T04:10:54.864Z,86.51
2019-04-20T04:11:48.947Z,87.08
2019-04-20T04:12:38.361Z,88.13
2019-04-20T04:13:35.500Z,88.66
2019-04-20T04:14:34.571Z,88.37
2019-04-20T04:15:38.137Z,88.85
2019-04-20T04:16:40.974Z,89.14
2019-04-20T04:17:39.082Z,88.37
2019-04-20T04:18:40.468Z,88.85
2019-04-20T04:19:38.255Z,88.09
2019-04-20T04:20:43.359Z,88.66
2019-04-20T04:21:49.853Z,89.04
2019-04-20T04:22:51.510Z,88.85
2019-04-20T04:24:46.613Z,87.90
2019-04-20T04:25:54.146Z,88.18
2019-04-20T04:26:48.893Z,88.75
2019-04-20T04:27:53.933Z,89.32
2019-04-20T04:28:47.449Z,89.61
2019-04-20T04:29:50.937Z,89.89
2019-04-20T04:30:49.401Z,89.51
2019-04-20T04:32:01.348Z,89.80
2019-04-20T04:33:24.467Z,89.70
2019-04-20T04:33:55.741Z,89.70
2019-04-20T04:34:51.211Z,89.61
2019-04-20T04:35:51.600Z,89.61
2019-04-20T04:36:53.928Z,89.80
2019-04-20T04:37:47.102Z,89.32
2019-04-20T04:38:53.493Z,89.70
2019-04-20T04:39:48.508Z,89.14
2019-04-20T04:41:06.476Z,89.14
2019-04-20T04:42:02.151Z,89.89
2019-04-20T04:42:53.709Z,89.70
2019-04-20T04:43:49.711Z,90.75
2019-04-20T04:44:43.540Z,91.22
2019-04-20T04:45:33.565Z,91.80
2019-04-20T04:46:33.924Z,90.84
2019-04-20T04:47:32.669Z,90.84
2019-04-20T04:48:36.650Z,90.84
2019-04-20T04:49:36.676Z,91.56
2019-04-20T04:50:32.951Z,91.13
2019-04-20T04:51:42.389Z,90.28
2019-04-20T04:52:43.158Z,90.18
2019-04-20T04:53:44.230Z,89.70
2019-04-20T04:54:41.337Z,89.99
2019-04-20T04:55:41.736Z,90.47
2019-04-20T04:56:32.001Z,89.89
2019-04-20T04:57:30.888Z,89.70
2019-04-20T04:58:31.903Z,90.75
2019-04-20T04:59:31.701Z,90.18
2019-04-20T05:00:33.147Z,90.08
2019-04-20T05:01:33.985Z,90.94
2019-04-20T05:02:39.306Z,90.94
2019-04-20T05:03:44.744Z,91.51
2019-04-20T05:04:58.496Z,90.18
2019-04-20T05:05:49.188Z,90.66
2019-04-20T05:06:45.525Z,90.66
2019-04-20T05:07:43.466Z,90.66
2019-04-20T05:08:36.744Z,90.47
2019-04-20T05:09:29.951Z,90.18
2019-04-20T05:10:30.756Z,89.99
2019-04-20T05:11:30.083Z,90.47
2019-04-20T05:12:33.081Z,90.84
2019-04-20T05:13:38.087Z,89.99
2019-04-20T05:14:41.840Z,90.84
2019-04-20T05:15:44.401Z,91.03
2019-04-20T05:16:45.074Z,90.75
2019-04-20T05:17:52.749Z,89.89
2019-04-20T05:18:52.523Z,90.56
2019-04-20T05:19:47.863Z,90.08
2019-04-20T05:20:54.611Z,89.89
2019-04-20T05:21:55.253Z,90.13
2019-04-20T05:22:45.736Z,90.84
2019-04-20T05:23:41.195Z,89.99
2019-04-20T05:24:42.406Z,91.22
2019-04-20T05:25:54.717Z,91.32
2019-04-20T05:26:53.393Z,91.08
2019-04-20T05:27:47.819Z,90.70
2019-04-20T05:29:37.865Z,90.99
2019-04-20T05:30:43.500Z,90.89
2019-04-20T05:31:43.167Z,90.99
2019-04-20T05:32:44.606Z,90.61
2019-04-20T05:34:01.188Z,90.99
2019-04-20T05:35:02.073Z,91.17
2019-04-20T05:35:58.912Z,90.80
2019-04-20T05:37:04.690Z,91.17
2019-04-20T05:38:02.899Z,90.13
2019-04-20T05:38:55.203Z,90.99
2019-04-20T05:40:00.340Z,91.94
2019-04-20T05:40:59.458Z,90.89
2019-04-20T05:41:51.387Z,89.56
2019-04-20T05:42:55.589Z,89.56
2019-04-20T05:43:50.725Z,89.65
2019-04-20T05:45:01.955Z,90.46
2019-04-20T05:45:45.383Z,89.79
2019-04-20T05:46:57.150Z,90.46
2019-04-20T05:47:52.651Z,90.75
2019-04-20T05:48:56.175Z,89.41
2019-04-20T05:49:49.967Z,89.41
2019-04-20T05:50:52.816Z,90.84
2019-04-20T05:51:56.158Z,90.27
2019-04-20T05:53:01.753Z,89.22
2019-04-20T05:53:50.079Z,89.13
2019-04-20T05:54:56.279Z,89.51
2019-04-20T05:57:00.812Z,89.79
2019-04-20T05:57:56.648Z,89.79
2019-04-20T05:58:58.048Z,90.75
2019-04-20T06:00:03.569Z,90.84
2019-04-20T06:01:58.634Z,87.89
2019-04-20T06:02:54.880Z,88.98
2019-04-20T06:03:48.989Z,88.79
2019-04-20T06:05:50.752Z,87.36
2019-04-20T06:06:37.729Z,87.46
2019-04-20T06:07:35.777Z,87.27
2019-04-20T06:09:42.953Z,86.69
2019-04-20T06:10:41.799Z,86.88
2019-04-20T06:11:44.457Z,87.27
2019-04-20T06:12:37.327Z,86.98
2019-04-20T06:13:29.919Z,85.69
2019-04-20T06:14:25.732Z,84.07
2019-04-20T06:15:30.537Z,83.02
2019-04-20T06:16:44.102Z,82.07
2019-04-20T06:17:41.885Z,83.16
2019-04-20T06:18:32.475Z,83.73
2019-04-20T06:19:35.430Z,82.68
2019-04-20T06:20:36.042Z,82.59
2019-04-20T06:21:39.452Z,83.35
2019-04-20T06:22:34.985Z,83.73
2019-04-20T06:23:33.805Z,82.49
2019-04-20T06:24:49.860Z,82.87
2019-04-20T06:25:44.294Z,82.59
2019-04-20T06:26:43.788Z,81.73
2019-04-20T06:27:34.734Z,80.11
2019-04-20T06:28:30.138Z,80.91
2019-04-20T06:29:35.162Z,80.81
2019-04-20T06:30:30.854Z,82.43
2019-04-20T06:31:35.684Z,80.68
2019-04-20T06:32:33.923Z,82.91
2019-04-20T06:33:52.374Z,83.20
2019-04-20T06:34:39.946Z,83.87
2019-04-20T06:35:59.164Z,83.20
2019-04-20T06:36:43.126Z,83.39
2019-04-20T06:37:39.088Z,83.11
2019-04-20T06:38:53.909Z,83.11
2019-04-20T06:39:41.475Z,82.43
2019-04-20T06:41:57.110Z,81.48
2019-04-20T06:42:29.234Z,80.72
2019-04-20T06:43:42.093Z,81.71
2019-04-20T06:45:36.420Z,80.85
2019-04-20T06:46:36.292Z,81.71
2019-04-20T06:47:29.285Z,81.33
2019-04-20T06:48:42.642Z,80.19
2019-04-20T06:49:33.411Z,79.61
2019-04-20T06:50:32.952Z,79.71
2019-04-20T06:51:35.045Z,80.38
2019-04-20T06:52:42.168Z,82.42
2019-04-20T06:53:36.634Z,83.95
2019-04-20T06:54:25.593Z,82.32
2019-04-20T06:55:38.170Z,81.56
2019-04-20T06:56:35.418Z,80.51
2019-04-20T06:57:35.669Z,80.32
2019-04-20T06:58:46.371Z,80.04
2019-04-20T06:59:40.768Z,80.22
2019-04-20T07:00:32.142Z,80.13
2019-04-20T07:01:47.062Z,80.55
2019-04-20T07:02:38.621Z,83.42
2019-04-20T07:03:42.312Z,79.60
2019-04-20T07:04:41.836Z,79.69
2019-04-20T07:05:34.681Z,78.64
2019-04-20T07:07:33.902Z,73.52
2019-04-20T07:08:48.800Z,73.23
2019-04-20T07:09:42.402Z,76.33
2019-04-20T07:10:49.491Z,75.76
2019-04-20T07:12:27.160Z,71.45
2019-04-20T07:13:23.999Z,74.26
2019-04-20T07:14:25.835Z,71.48
2019-04-20T07:15:35.341Z,66.70
2019-04-20T07:16:28.887Z,66.80
2019-04-20T07:17:39.251Z,64.43
2019-04-20T07:18:35.257Z,63.67
2019-04-20T07:19:31.368Z,63.32
2019-04-20T07:20:39.620Z,65.71
2019-04-20T07:21:49.697Z,67.34
2019-04-20T07:22:33.779Z,65.71
2019-04-20T07:23:32.625Z,65.52
2019-04-20T07:24:35.044Z,70.41
2019-04-20T07:25:31.720Z,70.70
2019-04-20T07:26:37.449Z,64.76
2019-04-20T07:27:29.542Z,64.95
2019-04-20T07:28:31.304Z,67.18
2019-04-20T07:29:36.883Z,67.25
2019-04-20T07:30:30.033Z,65.52
2019-04-20T07:31:29.628Z,67.76
2019-04-20T07:32:23.425Z,68.62
2019-04-20T07:33:32.167Z,61.82
2019-04-20T07:34:26.606Z,58.75
2019-04-20T07:35:30.581Z,57.63
2019-04-20T07:36:32.472Z,59.06
2019-04-20T07:38:34.280Z,60.89
2019-04-20T07:39:33.110Z,61.66
2019-04-20T07:40:24.619Z,58.97
2019-04-20T07:41:45.094Z,57.82
2019-04-20T07:42:34.599Z,59.38
2019-04-20T07:43:30.092Z,60.82
2019-04-20T07:44:36.011Z,59.48
2019-04-20T07:45:30.879Z,58.14
2019-04-20T07:46:44.705Z,57.46
2019-04-20T07:47:38.704Z,55.67
2019-04-20T07:48:24.802Z,54.52
2019-04-20T07:49:32.628Z,53.46
2019-04-20T07:50:21.761Z,52.81
2019-04-20T07:51:17.649Z,54.35
2019-04-20T07:52:08.146Z,52.81
2019-04-20T07:53:25.634Z,53.11
2019-04-20T07:54:40.204Z,53.39
2019-04-20T07:56:36.038Z,53.30
2019-04-20T07:57:25.898Z,53.27
2019-04-20T07:58:18.196Z,54.64
2019-04-20T07:59:20.570Z,53.11
2019-04-20T08:00:35.606Z,56.27
2019-04-20T08:01:36.137Z,54.74
2019-04-20T08:02:36.646Z,53.01
2019-04-20T08:03:33.780Z,53.11
2019-04-20T08:04:24.613Z,56.08
2019-04-20T08:05:19.605Z,55.32
2019-04-20T08:06:15.871Z,53.39
2019-04-20T08:07:09.493Z,52.46
2019-04-20T08:08:23.907Z,52.46
2019-04-20T08:09:19.638Z,53.03
2019-04-20T08:10:11.437Z,53.23
2019-04-20T08:11:22.857Z,51.31
2019-04-20T08:12:34.575Z,51.31
2019-04-20T08:13:33.390Z,51.59
2019-04-20T08:14:31.610Z,52.84
2019-04-20T08:15:36.384Z,51.59
2019-04-20T08:16:32.883Z,53.23
2019-04-20T08:17:30.913Z,53.13
2019-04-20T08:19:24.660Z,51.02
2019-04-20T08:20:25.700Z,52.26
2019-04-20T08:21:33.357Z,51.79
2019-04-20T08:22:26.728Z,50.54
2019-04-20T08:24:21.466Z,51.31
2019-04-20T08:25:16.732Z,50.73
2019-04-20T08:26:14.233Z,50.15
2019-04-20T08:27:09.291Z,50.44
2019-04-20T08:28:06.426Z,49.87
2019-04-20T08:29:20.556Z,49.38
2019-04-20T08:30:22.816Z,49.96
2019-04-20T08:31:17.899Z,49.02
2019-04-20T08:32:25.981Z,50.08
2019-04-20T08:33:24.555Z,48.74
2019-04-20T08:34:31.261Z,49.12
2019-04-20T08:35:29.687Z,49.99
2019-04-20T08:36:27.224Z,49.60
2019-04-20T08:37:20.677Z,49.89
2019-04-20T08:39:37.430Z,49.22
2019-04-20T08:40:25.424Z,49.51
2019-04-20T08:41:20.745Z,50.18
2019-04-20T08:42:21.634Z,49.05
2019-04-20T08:43:37.710Z,48.47
2019-04-20T08:44:46.964Z,46.93
2019-04-20T08:45:23.896Z,49.24
2019-04-20T08:47:32.337Z,48.18
2019-04-20T08:48:31.424Z,48.47
2019-04-20T08:49:31.039Z,47.03
2019-04-20T08:50:22.341Z,47.20
2019-04-20T08:51:25.840Z,48.38
2019-04-20T08:52:52.088Z,48.95
2019-04-20T08:53:27.592Z,46.45
2019-04-20T08:54:23.761Z,46.16
2019-04-20T08:55:19.770Z,46.93
2019-04-20T08:56:14.232Z,48.28
2019-04-20T08:57:04.802Z,47.61
2019-04-20T08:58:02.817Z,47.41
2019-04-20T08:59:03.903Z,48.18
2019-04-20T09:00:04.979Z,47.51
2019-04-20T09:01:06.548Z,46.74
2019-04-20T09:02:08.464Z,46.93
2019-04-20T09:03:13.009Z,46.45
2019-04-20T09:04:10.838Z,47.70
2019-04-20T09:05:09.062Z,47.41
2019-04-20T09:06:08.595Z,46.16
2019-04-20T09:07:10.706Z,47.13
2019-04-20T09:08:11.350Z,46.74
2019-04-20T09:09:33.144Z,47.44
2019-04-20T09:10:28.172Z,48.49
2019-04-20T09:11:19.623Z,47.44
2019-04-20T09:12:16.748Z,46.47
2019-04-20T09:13:11.588Z,47.63
2019-04-20T09:14:03.855Z,46.19
2019-04-20T09:15:01.673Z,45.03
2019-04-20T09:16:02.119Z,46.38
2019-04-20T09:17:05.873Z,45.70
2019-04-20T09:18:05.546Z,45.61
2019-04-20T09:19:07.034Z,44.93
2019-04-20T09:20:09.638Z,45.13
2019-04-20T09:21:09.049Z,44.35
2019-04-20T09:22:12.193Z,44.65
2019-04-20T09:23:17.194Z,45.22
2019-04-20T09:24:31.996Z,45.80
2019-04-20T09:26:16.241Z,44.65
2019-04-20T09:27:14.269Z,44.45
2019-04-20T09:28:14.597Z,47.05
2019-04-20T09:29:12.653Z,46.38
2019-04-20T09:30:16.054Z,46.21
2019-04-20T09:31:18.474Z,44.96
2019-04-20T09:32:21.584Z,44.57
2019-04-20T09:33:14.692Z,46.31
2019-04-20T09:34:15.725Z,48.06
2019-04-20T09:35:22.159Z,45.92
2019-04-20T09:36:15.311Z,44.28
2019-04-20T09:37:22.380Z,43.51
2019-04-20T09:38:14.499Z,43.71
2019-04-20T09:39:11.355Z,43.51
2019-04-20T09:40:16.314Z,43.61
2019-04-20T09:41:22.010Z,43.80
2019-04-20T09:42:01.454Z,43.41
2019-04-20T09:43:00.224Z,43.32
2019-04-20T09:44:00.363Z,43.32
2019-04-20T09:45:02.788Z,45.25
2019-04-20T09:46:03.592Z,44.86
2019-04-20T09:47:01.689Z,44.59
2019-04-20T09:48:00.553Z,43.05
2019-04-20T09:49:06.367Z,42.28
2019-04-20T09:50:18.816Z,44.40
2019-04-20T09:51:20.369Z,44.59
2019-04-20T09:52:13.605Z,41.41
2019-04-20T09:53:14.295Z,41.61
2019-04-20T09:54:17.447Z,42.28
2019-04-20T09:55:10.814Z,42.86
2019-04-20T09:56:18.241Z,43.54
2019-04-20T09:57:21.313Z,44.13
2019-04-20T09:58:14.817Z,42.11
2019-04-20T09:59:16.574Z,40.95
2019-04-20T10:00:15.857Z,41.14
2019-04-20T10:01:13.298Z,40.66
2019-04-20T10:02:06.581Z,40.86
2019-04-20T10:02:58.324Z,42.21
2019-04-20T10:03:59.023Z,41.14
2019-04-20T10:04:58.021Z,41.24
2019-04-20T10:05:59.226Z,40.86
2019-04-20T10:07:02.253Z,42.11
2019-04-20T10:08:01.233Z,38.54
2019-04-20T10:09:00.464Z,38.16
2019-04-20T10:09:57.910Z,37.87
2019-04-20T10:10:57.598Z,38.74
2019-04-20T10:11:57.633Z,39.31
2019-04-20T10:12:58.357Z,40.66
2019-04-20T10:13:58.564Z,39.12
2019-04-20T10:15:02.678Z,39.22
2019-04-20T10:15:57.669Z,38.35
2019-04-20T10:16:57.978Z,38.74
2019-04-20T10:17:57.113Z,37.48
2019-04-20T10:18:57.037Z,37.87
2019-04-20T10:19:57.762Z,37.68
2019-04-20T10:20:57.953Z,38.85
2019-04-20T10:21:57.025Z,39.34
2019-04-20T10:22:56.751Z,38.85
2019-04-20T10:23:56.683Z,37.10
2019-04-20T10:24:57.156Z,37.39
2019-04-20T10:25:56.625Z,37.10
2019-04-20T10:26:56.627Z,38.26
2019-04-20T10:27:57.578Z,39.03
2019-04-20T10:28:57.486Z,37.96
2019-04-20T10:29:57.502Z,37.41
2019-04-20T10:30:56.773Z,38.56
2019-04-20T10:32:00.107Z,38.76
2019-04-20T10:32:57.366Z,37.70
2019-04-20T10:33:55.975Z,38.66
2019-04-20T10:34:56.823Z,36.54
2019-04-20T10:35:57.330Z,37.21
2019-04-20T10:36:55.763Z,36.93
2019-04-20T10:37:55.739Z,37.12
2019-04-20T10:38:55.624Z,36.35
2019-04-20T10:39:56.560Z,35.30
2019-04-20T10:41:04.403Z,37.91
2019-04-20T10:41:59.015Z,36.07
2019-04-20T10:42:58.190Z,34.63
2019-04-20T10:43:56.612Z,35.11
2019-04-20T10:44:57.207Z,35.78
2019-04-20T10:45:55.132Z,33.66
2019-04-20T10:46:55.060Z,33.29
2019-04-20T10:47:55.086Z,34.06
2019-04-20T10:48:57.221Z,33.95
2019-04-20T10:49:55.347Z,35.32
2019-04-20T10:50:54.884Z,33.95
2019-04-20T10:51:55.783Z,34.05
2019-04-20T10:52:55.994Z,33.20
2019-04-20T10:53:54.567Z,33.87
2019-04-20T10:54:54.504Z,32.91
2019-04-20T10:55:55.597Z,32.43
2019-04-20T10:56:55.412Z,32.12
2019-04-20T10:57:55.591Z,33.10
2019-04-20T10:58:54.219Z,33.68
2019-04-20T10:59:55.382Z,32.43
2019-04-20T11:00:55.356Z,32.44
2019-04-20T11:08:56.318Z,33.98
2019-04-20T11:10:04.381Z,33.72
2019-04-20T11:11:07.364Z,33.04
2019-04-20T11:11:56.365Z,34.02
2019-04-20T11:12:55.058Z,35.28
2019-04-20T11:13:55.355Z,33.94
2019-04-20T11:14:54.924Z,32.96
2019-04-20T11:15:54.879Z,32.67
2019-04-20T11:16:56.126Z,33.15
2019-04-20T11:17:57.563Z,31.89
2019-04-20T11:19:47.564Z,35.47
2019-04-20T11:20:47.072Z,33.72
2019-04-20T11:21:48.208Z,32.36
2019-04-20T11:22:46.936Z,32.65
2019-04-20T11:23:46.867Z,33.52
2019-04-20T11:24:48.158Z,35.37
2019-04-20T11:25:46.731Z,33.83
2019-04-20T11:26:46.904Z,31.70
2019-04-20T11:27:47.987Z,31.70
2019-04-20T11:28:46.522Z,33.81
2019-04-20T11:29:46.453Z,33.05
2019-04-20T11:30:46.385Z,33.25
2019-04-20T11:31:49.505Z,32.59
2019-04-20T11:32:46.359Z,33.95
2019-04-20T11:33:46.180Z,34.36
2019-04-20T11:34:47.110Z,32.73
2019-04-20T11:35:46.899Z,30.89
2019-04-20T11:36:45.976Z,31.87
2019-04-20T11:37:47.048Z,32.47
2019-04-20T11:38:47.045Z,30.45
2019-04-20T11:39:45.776Z,28.93
2019-04-20T11:40:46.890Z,30.82
2019-04-20T11:41:45.812Z,30.15
2019-04-20T11:42:45.708Z,26.57
2019-04-20T11:43:45.512Z,24.68
2019-04-20T11:44:46.732Z,25.34
2019-04-20T11:45:46.725Z,26.23
2019-04-20T11:46:45.318Z,28.38
2019-04-20T11:47:45.357Z,27.42
2019-04-20T11:48:45.489Z,27.42
2019-04-20T11:49:45.814Z,26.65
2019-04-20T11:50:45.391Z,26.07
2019-04-20T11:51:45.551Z,25.19
2019-04-20T11:52:48.136Z,24.89
2019-04-20T11:53:45.989Z,24.79
2019-04-20T11:54:44.818Z,27.03
2019-04-20T11:55:44.757Z,25.27
2019-04-20T11:56:47.164Z,27.61
2019-04-20T11:57:45.236Z,26.65
2019-04-20T11:58:44.904Z,25.40
2019-04-20T11:59:45.339Z,25.40
2019-04-20T12:00:55.261Z,26.78
2019-04-20T12:01:51.976Z,25.89
2019-04-20T12:02:46.486Z,24.74
2019-04-20T12:03:54.268Z,25.43
2019-04-20T12:04:54.362Z,26.72
2019-04-20T12:05:48.221Z,24.65
2019-04-20T12:06:44.100Z,23.18
2019-04-20T12:07:44.806Z,25.25
2019-04-20T12:08:45.364Z,24.95
2019-04-20T12:09:43.931Z,24.37
2019-04-20T12:10:49.250Z,24.87
2019-04-20T12:11:54.957Z,23.77
2019-04-20T12:12:47.865Z,26.18
2019-04-20T12:13:44.870Z,24.43
2019-04-20T12:14:43.641Z,23.07
2019-04-20T12:15:43.575Z,22.60
2019-04-20T12:16:43.780Z,23.28
2019-04-20T12:17:43.932Z,23.27
2019-04-20T12:18:44.358Z,23.66
2019-04-20T12:19:43.881Z,24.44
2019-04-20T12:20:43.289Z,24.35
2019-04-20T12:21:43.231Z,23.79
2019-04-20T12:22:44.261Z,24.50
2019-04-20T12:23:44.435Z,23.44
2019-04-20T12:24:44.450Z,22.06
2019-04-20T12:25:44.580Z,21.00
2019-04-20T12:26:42.946Z,23.43
2019-04-20T12:27:50.745Z,22.02
2019-04-20T12:28:43.380Z,24.08
2019-04-20T12:29:43.628Z,23.58
2019-04-20T12:30:43.869Z,24.18
2019-04-20T12:31:44.292Z,23.69
2019-04-20T12:32:47.791Z,24.39
2019-04-20T12:33:42.550Z,24.39
2019-04-20T12:34:43.422Z,24.51
2019-04-20T12:35:42.642Z,21.95
2019-04-20T12:36:42.830Z,22.72
2019-04-20T12:37:43.150Z,22.84
2019-04-20T12:38:43.346Z,22.72
2019-04-20T12:39:42.897Z,22.88
2019-04-20T12:40:42.156Z,23.38
2019-04-20T12:41:49.796Z,24.76
2019-04-20T12:42:43.181Z,23.18
2019-04-20T12:43:41.987Z,23.39
2019-04-20T12:44:41.930Z,24.68
2019-04-20T12:45:42.128Z,24.27
2019-04-20T12:46:41.819Z,24.57
2019-04-20T12:47:41.775Z,22.90
2019-04-20T12:48:41.870Z,24.94
2019-04-20T12:49:41.649Z,24.26
2019-04-20T12:50:41.605Z,23.29
2019-04-20T12:51:48.711Z,23.32
2019-04-20T12:52:41.481Z,24.71
2019-04-20T12:53:42.597Z,22.64
2019-04-20T12:54:44.246Z,22.06
2019-04-20T12:55:41.310Z,20.87
2019-04-20T12:56:42.509Z,22.53
2019-04-20T12:57:41.198Z,21.34
2019-04-20T12:58:43.375Z,21.50
2019-04-20T12:59:43.669Z,22.49
2019-04-20T13:00:41.664Z,23.00
2019-04-20T13:01:41.523Z,22.61
2019-04-20T13:02:41.159Z,22.94
2019-04-20T13:03:41.560Z,21.56
2019-04-20T13:04:41.561Z,21.12
2019-04-20T13:05:40.753Z,22.49
2019-04-20T13:06:40.934Z,25.04
2019-04-20T13:07:46.057Z,22.50
2019-04-20T13:08:44.426Z,22.71
2019-04-20T13:09:40.875Z,22.91
2019-04-20T13:10:40.466Z,22.72
2019-04-20T13:11:50.733Z,21.66
2019-04-20T13:12:40.757Z,21.95
2019-04-20T13:13:40.805Z,21.55
2019-04-20T13:14:40.240Z,22.62
2019-04-20T13:15:40.565Z,22.45
2019-04-20T13:16:40.598Z,21.47
2019-04-20T13:17:40.118Z,20.38
2019-04-20T13:18:41.148Z,21.36
2019-04-20T13:19:39.961Z,21.47
2019-04-20T13:20:39.939Z,20.90
2019-04-20T13:21:40.985Z,20.20
2019-04-20T13:22:40.900Z,21.37
2019-04-20T13:23:40.621Z,20.87
2019-04-20T13:24:40.896Z,19.39
2019-04-20T13:25:39.622Z,19.59
2019-04-20T13:26:40.646Z,19.79
2019-04-20T13:27:40.621Z,20.67
2019-04-20T13:28:39.455Z,20.17
2019-04-20T13:29:40.495Z,21.54
2019-04-20T13:30:39.725Z,20.45
2019-04-20T13:31:39.974Z,21.51